createdAt,value
2019-03-23T07:48:21.735Z,8.50
2019-03-23T07:53:26.673Z,8.54
2019-03-23T07:58:31.721Z,8.62
2019-03-23T08:03:36.936Z,8.61
2019-03-23T08:08:41.761Z,8.60
2019-03-23T08:13:46.591Z,8.64
2019-03-23T08:18:51.311Z,8.60
2019-03-23T08:23:56.361Z,8.61
2019-03-23T08:29:03.213Z,8.60
2019-03-23T08:34:07.991Z,8.61
2019-03-23T08:39:12.760Z,8.65
2019-03-23T08:44:17.736Z,8.70
2019-03-23T08:49:22.580Z,8.73
2019-03-23T08:54:27.410Z,8.69
2019-03-23T08:59:32.562Z,8.81
2019-03-23T09:04:37.666Z,8.99
2019-03-23T09:09:42.917Z,9.03
2019-03-23T09:14:47.806Z,9.16
2019-03-23T09:19:52.762Z,9.10
2019-03-23T09:24:57.448Z,9.24
2019-03-23T09:30:02.216Z,9.30
2019-03-23T09:35:07.605Z,9.44
2019-03-23T09:40:12.501Z,9.57
2019-03-23T09:45:17.339Z,9.51
2019-03-23T09:50:22.126Z,9.58
2019-03-23T09:55:28.640Z,9.58
2019-03-23T10:00:34.484Z,9.71
2019-03-23T10:05:39.316Z,10.21
2019-03-23T10:10:44.186Z,10.81
2019-03-23T10:15:48.908Z,10.65
2019-03-23T10:20:53.821Z,11.10
2019-03-23T10:25:58.653Z,11.94
2019-03-23T10:31:03.953Z,11.94
2019-03-23T10:36:09.107Z,12.62
2019-03-23T10:41:13.956Z,12.84
2019-03-23T10:46:18.958Z,12.53
2019-03-23T10:51:23.754Z,12.76
2019-03-23T10:56:28.685Z,13.33
2019-03-23T11:01:34.655Z,13.17
2019-03-23T11:06:39.916Z,12.47
2019-03-23T11:11:44.992Z,12.25
2019-03-23T11:16:51.126Z,12.18
2019-03-23T11:21:55.839Z,12.21
2019-03-23T11:27:00.609Z,12.23
2019-03-23T11:32:05.462Z,13.13
2019-03-23T11:37:10.420Z,13.69
2019-03-23T11:42:15.606Z,14.14
2019-03-23T11:47:20.517Z,13.48
2019-03-23T11:52:25.611Z,12.98
2019-03-23T11:57:30.715Z,12.86
2019-03-23T12:02:36.451Z,13.63
2019-03-23T12:07:44.086Z,13.74
2019-03-23T12:12:48.981Z,13.81
2019-03-23T12:17:53.804Z,13.79
2019-03-23T12:22:58.641Z,13.69
2019-03-23T12:28:03.534Z,13.69
2019-03-23T12:33:08.926Z,12.90
2019-03-23T12:38:14.505Z,13.29
2019-03-23T12:43:19.665Z,12.83
2019-03-23T12:48:24.486Z,12.60
2019-03-23T12:53:29.381Z,12.18
2019-03-23T12:58:34.422Z,11.72
2019-03-23T13:03:39.301Z,11.59
2019-03-23T13:08:44.282Z,11.69
2019-03-23T13:13:49.017Z,11.53
2019-03-23T13:18:53.977Z,11.18
2019-03-23T13:23:58.957Z,11.10
2019-03-23T13:29:03.809Z,11.06
2019-03-23T13:34:09.111Z,11.03
2019-03-23T13:39:13.850Z,10.99
2019-03-23T13:44:23.095Z,10.78
2019-03-23T13:49:27.762Z,10.74
2019-03-23T13:54:32.574Z,10.65
2019-03-23T13:59:37.427Z,10.59
2019-03-23T14:04:42.833Z,10.54
2019-03-23T14:09:47.996Z,10.41
2019-03-23T14:14:52.860Z,10.41
2019-03-23T14:19:57.621Z,10.33
2019-03-23T14:25:02.704Z,10.46
2019-03-23T14:30:08.055Z,10.44
2019-03-23T14:35:12.881Z,10.50
2019-03-23T14:40:17.609Z,10.53
2019-03-23T14:45:22.586Z,10.70
2019-03-23T14:50:28.005Z,10.61
2019-03-23T14:55:33.129Z,10.59
2019-03-23T15:00:38.028Z,10.49
2019-03-23T15:05:42.866Z,10.36
2019-03-23T15:10:47.586Z,10.27
2019-03-23T15:15:52.550Z,10.25
2019-03-23T15:20:57.505Z,10.19
2019-03-23T15:26:03.368Z,10.06
2019-03-23T15:31:08.561Z,10.04
2019-03-23T15:36:13.291Z,10.15
2019-03-23T15:41:17.842Z,10.15
2019-03-23T15:46:22.375Z,10.16
2019-03-23T15:51:27.046Z,10.08
2019-03-23T15:56:32.696Z,10.06
2019-03-23T16:01:37.592Z,10.02
2019-03-23T16:06:45.351Z,9.90
2019-03-23T16:11:50.165Z,9.76
2019-03-23T16:16:56.365Z,9.80
2019-03-23T16:22:01.161Z,9.73
2019-03-23T16:27:05.946Z,9.54
2019-03-23T16:32:11.229Z,9.50
2019-03-23T16:37:16.468Z,9.55
2019-03-23T16:42:21.378Z,9.60
2019-03-23T16:47:26.146Z,9.60
2019-03-23T16:52:31.018Z,9.58
2019-03-23T16:57:35.827Z,9.54
2019-03-23T17:02:40.741Z,9.49
2019-03-23T17:07:45.583Z,9.51
2019-03-23T17:12:55.320Z,9.55
2019-03-23T17:17:57.021Z,9.56
2019-03-23T17:23:02.129Z,9.62
2019-03-23T17:28:06.810Z,9.60
2019-03-23T17:33:11.598Z,9.61
2019-03-23T17:38:16.289Z,9.59
2019-03-23T17:43:23.565Z,9.63
2019-03-23T17:48:28.356Z,9.61
2019-03-23T17:53:33.096Z,9.58
2019-03-23T17:58:38.133Z,9.52
2019-03-23T18:03:43.076Z,9.51
2019-03-23T18:08:48.016Z,9.50
2019-03-23T18:13:53.353Z,9.51
2019-03-23T18:18:58.336Z,9.54
2019-03-23T18:24:02.958Z,9.54
2019-03-23T18:29:08.036Z,9.50
2019-03-23T18:34:13.333Z,9.50
2019-03-23T18:39:18.536Z,9.47
2019-03-23T18:44:23.535Z,9.48
2019-03-23T18:49:28.435Z,9.48
2019-03-23T18:54:33.796Z,9.50
2019-03-23T18:59:38.937Z,9.51
2019-03-23T19:04:43.857Z,9.51
2019-03-23T19:09:49.650Z,9.52
2019-03-23T19:14:54.496Z,9.56
2019-03-23T19:19:59.436Z,9.56
2019-03-23T19:25:14.801Z,9.55
2019-03-23T19:30:12.818Z,9.56
2019-03-23T19:35:17.555Z,9.56
2019-03-23T19:40:22.616Z,9.58
2019-03-23T19:45:27.605Z,9.64
2019-03-23T19:50:32.716Z,9.66
2019-03-23T19:55:37.618Z,9.66
2019-03-23T20:00:42.556Z,9.67
2019-03-23T20:05:47.555Z,9.66
2019-03-23T20:10:53.855Z,9.66
2019-03-23T20:15:58.796Z,9.67
2019-03-23T20:21:03.665Z,9.67
2019-03-23T20:26:08.676Z,9.67
2019-03-23T20:31:15.373Z,9.65
2019-03-23T20:36:20.198Z,9.65
2019-03-23T20:41:24.985Z,9.60
2019-03-23T20:46:29.925Z,9.62
2019-03-23T20:51:35.093Z,9.62
2019-03-23T20:56:40.216Z,9.60
2019-03-23T21:01:45.392Z,9.58
2019-03-23T21:06:50.296Z,9.55
2019-03-23T21:11:57.036Z,9.54
2019-03-23T21:17:03.404Z,9.54
2019-03-23T21:22:08.355Z,9.57
2019-03-23T21:27:13.455Z,9.62
2019-03-23T21:32:18.216Z,9.60
2019-03-23T21:37:23.116Z,9.57
2019-03-23T21:42:27.796Z,9.61
2019-03-23T21:47:32.837Z,9.65
2019-03-23T21:52:37.855Z,9.65
2019-03-23T21:57:43.059Z,9.69
2019-03-23T22:02:48.236Z,9.70
2019-03-23T22:07:53.180Z,9.71
2019-03-23T22:12:59.273Z,9.75
2019-03-23T22:18:04.257Z,9.77
2019-03-23T22:23:11.377Z,9.76
2019-03-23T22:28:16.585Z,9.73
2019-03-23T22:33:21.676Z,9.74
2019-03-23T22:38:26.916Z,9.77
2019-03-23T22:43:31.857Z,9.79
2019-03-23T22:48:38.282Z,9.72
2019-03-23T22:53:42.981Z,9.77
2019-03-23T22:58:47.738Z,9.78
2019-03-23T23:03:52.937Z,9.81
2019-03-23T23:08:57.797Z,9.80
2019-03-23T23:14:02.875Z,9.75
2019-03-23T23:19:10.177Z,9.76
2019-03-23T23:24:15.215Z,9.74
2019-03-23T23:29:20.376Z,9.74
2019-03-23T23:34:25.636Z,9.70
2019-03-23T23:39:30.629Z,9.69
2019-03-23T23:44:36.937Z,9.62
2019-03-23T23:49:42.066Z,9.56
2019-03-23T23:54:46.856Z,9.46
2019-03-23T23:59:51.657Z,9.34
